createdAt,value
2023-05-06T00:03:40.805Z,10.88
2023-05-06T00:08:48.047Z,10.82
2023-05-06T00:13:54.901Z,10.77
2023-05-06T00:19:01.879Z,10.72
2023-05-06T00:24:09.516Z,10.66
2023-05-06T00:29:16.403Z,10.61
2023-05-06T00:34:23.268Z,10.56
2023-05-06T00:39:30.631Z,10.49
2023-05-06T00:44:37.567Z,10.46
2023-05-06T00:49:44.773Z,10.48
2023-05-06T00:54:52.597Z,10.52
2023-05-06T00:59:59.627Z,10.56
2023-05-06T01:05:08.282Z,10.59
2023-05-06T01:10:22.614Z,10.61
2023-05-06T01:15:34.553Z,10.65
2023-05-06T01:20:43.743Z,10.69
2023-05-06T01:25:50.777Z,10.73
2023-05-06T01:31:03.792Z,10.75
2023-05-06T01:36:20.040Z,10.77
2023-05-06T01:41:28.411Z,10.79
2023-05-06T01:46:35.672Z,10.80
2023-05-06T01:51:47.911Z,10.81
2023-05-06T01:56:55.315Z,10.82
2023-05-06T02:02:02.307Z,10.83
2023-05-06T02:07:09.782Z,10.83
2023-05-06T02:12:17.073Z,10.84
2023-05-06T02:17:24.289Z,10.83
2023-05-06T02:22:31.794Z,10.82
2023-05-06T02:27:38.753Z,10.82
2023-05-06T02:32:45.898Z,10.83
2023-05-06T02:37:52.805Z,10.83
2023-05-06T02:42:59.891Z,10.85
2023-05-06T02:48:07.642Z,10.86
2023-05-06T02:53:16.956Z,10.86
2023-05-06T02:58:23.935Z,10.85
2023-05-06T03:03:30.905Z,10.85
2023-05-06T03:08:38.077Z,10.84
2023-05-06T03:13:46.501Z,10.83
2023-05-06T03:18:54.296Z,10.82
2023-05-06T03:24:01.617Z,10.80
2023-05-06T03:29:09.743Z,10.79
2023-05-06T03:34:16.867Z,10.78
2023-05-06T03:39:24.993Z,10.77
2023-05-06T03:44:32.703Z,10.75
2023-05-06T03:49:40.195Z,10.74
2023-05-06T03:54:47.996Z,10.73
2023-05-06T03:59:54.892Z,10.71
2023-05-06T04:05:02.219Z,10.67
2023-05-06T04:10:11.402Z,10.61
2023-05-06T04:15:20.266Z,10.56
2023-05-06T04:20:27.466Z,10.51
2023-05-06T04:25:36.008Z,10.45
2023-05-06T04:30:43.446Z,10.38
2023-05-06T04:35:54.866Z,10.32
2023-05-06T04:41:03.989Z,10.27
2023-05-06T04:46:11.637Z,10.21
2023-05-06T04:51:19.374Z,10.15
2023-05-06T04:56:26.489Z,10.13
2023-05-06T05:01:34.286Z,10.14
2023-05-06T05:06:41.633Z,10.17
2023-05-06T05:11:48.836Z,10.19
2023-05-06T05:16:56.084Z,10.21
2023-05-06T05:22:03.780Z,10.26
2023-05-06T05:27:15.338Z,10.33
2023-05-06T05:32:25.169Z,10.39
2023-05-06T05:37:32.719Z,10.38
2023-05-06T05:42:40.817Z,10.38
2023-05-06T05:47:54.154Z,10.40
2023-05-06T05:53:02.375Z,10.40
2023-05-06T05:58:12.508Z,10.41
2023-05-06T06:03:21.702Z,10.42
2023-05-06T06:08:29.938Z,10.45
2023-05-06T06:13:38.040Z,10.44
2023-05-06T06:18:48.116Z,10.41
2023-05-06T06:23:55.077Z,10.38
2023-05-06T06:29:02.180Z,10.37
2023-05-06T06:34:10.044Z,10.36
2023-05-06T06:39:17.121Z,10.32
2023-05-06T06:44:24.130Z,10.29
2023-05-06T06:49:32.557Z,10.26
2023-05-06T06:54:41.415Z,10.24
2023-05-06T06:59:50.433Z,10.20
2023-05-06T07:04:57.703Z,10.16
2023-05-06T07:10:04.898Z,10.14
2023-05-06T07:15:13.046Z,10.11
2023-05-06T07:20:20.450Z,10.06
2023-05-06T07:25:31.472Z,10.04
2023-05-06T07:30:40.583Z,10.02
2023-05-06T07:35:47.713Z,10.00
2023-05-06T07:40:54.990Z,9.99
2023-05-06T07:46:05.224Z,9.94
2023-05-06T07:51:12.400Z,9.87
2023-05-06T07:56:20.159Z,9.78
2023-05-06T08:01:27.168Z,9.71
2023-05-06T08:06:33.970Z,9.73
2023-05-06T08:11:40.945Z,9.77
2023-05-06T08:16:48.017Z,9.79
2023-05-06T08:21:55.426Z,9.83
2023-05-06T08:27:02.416Z,9.87
2023-05-06T08:32:09.622Z,9.86
2023-05-06T08:37:16.638Z,9.82
2023-05-06T08:42:26.431Z,9.82
2023-05-06T08:47:33.511Z,9.81
2023-05-06T08:52:40.887Z,9.72
2023-05-06T08:57:49.211Z,9.77
2023-05-06T09:02:56.504Z,9.91
2023-05-06T09:08:04.328Z,10.05
2023-05-06T09:13:14.054Z,10.19
2023-05-06T09:18:21.308Z,10.36
2023-05-06T09:23:28.618Z,10.58
2023-05-06T09:28:36.732Z,10.84
2023-05-06T09:33:43.796Z,11.07
2023-05-06T09:38:50.994Z,11.33
2023-05-06T09:43:59.334Z,11.55
2023-05-06T09:49:06.993Z,11.67
2023-05-06T09:54:15.091Z,11.66
2023-05-06T09:59:24.587Z,11.63
2023-05-06T10:04:34.938Z,11.69
2023-05-06T10:09:42.678Z,11.67
2023-05-06T10:14:50.615Z,11.59
2023-05-06T10:20:01.452Z,11.50
2023-05-06T10:25:19.413Z,11.47
2023-05-06T10:30:27.975Z,11.44
2023-05-06T10:35:49.304Z,11.43
2023-05-06T10:40:55.779Z,11.45
2023-05-06T10:46:10.851Z,11.46
2023-05-06T10:51:28.966Z,11.49
2023-05-06T10:56:37.632Z,11.55
2023-05-06T11:01:46.458Z,11.54
2023-05-06T11:06:54.369Z,11.57
2023-05-06T11:12:05.869Z,11.65
2023-05-06T11:22:50.738Z,11.75
2023-05-06T11:27:58.488Z,11.80
2023-05-06T11:33:09.132Z,11.82
2023-05-06T11:38:16.251Z,11.88
2023-05-06T11:43:23.444Z,11.97
2023-05-06T11:48:30.713Z,12.08
2023-05-06T11:53:38.470Z,12.16
2023-05-06T11:58:47.536Z,12.23
2023-05-06T12:03:57.632Z,12.25
2023-05-06T12:09:06.515Z,12.23
2023-05-06T12:14:14.046Z,12.30
2023-05-06T12:19:22.218Z,12.36
2023-05-06T12:24:32.230Z,12.42
2023-05-06T12:29:39.223Z,12.42
2023-05-06T12:34:46.277Z,12.40
2023-05-06T12:39:53.280Z,12.36
2023-05-06T12:45:13.920Z,12.32
2023-05-06T12:50:33.750Z,12.29
2023-05-06T12:55:42.424Z,12.27
2023-05-06T13:00:49.448Z,12.28
2023-05-06T13:05:56.388Z,12.28
2023-05-06T13:11:04.318Z,12.33
2023-05-06T13:16:12.090Z,12.43
2023-05-06T13:21:18.916Z,12.49
2023-05-06T13:26:25.995Z,12.46
2023-05-06T13:31:34.934Z,12.39
2023-05-06T13:36:43.352Z,12.31
2023-05-06T13:41:50.673Z,12.17
2023-05-06T13:46:57.872Z,12.07
2023-05-06T13:52:07.212Z,11.99
2023-05-06T13:57:15.053Z,11.89
2023-05-06T14:02:22.368Z,11.86
2023-05-06T14:07:29.525Z,11.76
2023-05-06T14:12:36.743Z,11.68
2023-05-06T14:17:44.094Z,11.65
2023-05-06T14:22:51.118Z,11.62
2023-05-06T14:27:58.408Z,11.59
2023-05-06T14:33:05.560Z,11.56
2023-05-06T14:38:13.291Z,11.54
2023-05-06T14:43:21.490Z,11.50
2023-05-06T14:48:28.577Z,11.46
2023-05-06T14:53:35.798Z,11.44
2023-05-06T14:58:42.999Z,11.37
2023-05-06T15:03:51.256Z,11.32
2023-05-06T15:08:58.331Z,11.30
2023-05-06T15:14:05.322Z,11.27
2023-05-06T15:19:12.964Z,11.21
2023-05-06T15:24:19.924Z,11.17
2023-05-06T15:29:26.950Z,11.17
2023-05-06T15:34:33.935Z,11.11
2023-05-06T15:39:40.927Z,11.09
2023-05-06T15:44:51.524Z,11.07
2023-05-06T15:49:59.686Z,10.99
2023-05-06T15:55:08.308Z,10.90
2023-05-06T16:00:19.423Z,10.82
2023-05-06T16:05:26.545Z,10.77
2023-05-06T16:10:35.572Z,10.73
2023-05-06T16:15:43.482Z,10.68
2023-05-06T16:20:51.082Z,10.62
2023-05-06T16:25:58.144Z,10.60
2023-05-06T16:31:06.204Z,10.53
2023-05-06T16:36:13.432Z,10.47
2023-05-06T16:41:20.922Z,10.49
2023-05-06T16:46:28.952Z,10.50
2023-05-06T16:51:36.203Z,10.49
2023-05-06T16:56:51.304Z,10.43
2023-05-06T17:01:59.795Z,10.39
2023-05-06T17:07:07.569Z,10.33
2023-05-06T17:12:14.585Z,10.27
2023-05-06T17:17:25.319Z,10.20
2023-05-06T17:22:32.628Z,10.14
2023-05-06T17:27:39.813Z,10.07
2023-05-06T17:32:46.816Z,10.00
2023-05-06T17:37:55.009Z,9.92
2023-05-06T17:43:02.102Z,9.82
2023-05-06T17:48:09.439Z,9.76
2023-05-06T17:53:16.540Z,9.73
2023-05-06T17:58:24.007Z,9.69
2023-05-06T18:03:31.305Z,9.69
2023-05-06T18:08:38.328Z,9.64
2023-05-06T18:13:45.424Z,9.60
2023-05-06T18:18:52.501Z,9.56
2023-05-06T18:24:10.265Z,9.53
2023-05-06T18:29:23.044Z,9.48
2023-05-06T18:34:30.385Z,9.44
2023-05-06T18:39:42.826Z,9.42
2023-05-06T18:44:50.464Z,9.38
2023-05-06T18:50:00.594Z,9.35
2023-05-06T18:55:08.955Z,9.30
2023-05-06T19:00:16.839Z,9.28
2023-05-06T19:05:43.964Z,9.23
2023-05-06T19:10:51.060Z,9.21
2023-05-06T19:16:01.444Z,9.19
2023-05-06T19:21:12.502Z,9.15
2023-05-06T19:26:19.844Z,9.11
2023-05-06T19:31:27.015Z,9.07
2023-05-06T19:36:37.099Z,9.02
2023-05-06T19:41:44.229Z,8.99
2023-05-06T19:46:56.182Z,8.96
2023-05-06T19:52:03.448Z,8.96
2023-05-06T19:57:10.792Z,8.95
2023-05-06T20:02:17.919Z,8.93
2023-05-06T20:07:24.985Z,8.91
2023-05-06T20:12:32.057Z,8.88
2023-05-06T20:17:38.989Z,8.86
2023-05-06T20:22:46.076Z,8.81
2023-05-06T20:27:53.104Z,8.77
2023-05-06T20:33:00.310Z,8.72
2023-05-06T20:38:11.154Z,8.67
2023-05-06T20:43:18.279Z,8.61
2023-05-06T20:48:27.101Z,8.58
2023-05-06T20:53:34.863Z,8.55
2023-05-06T20:58:42.237Z,8.51
2023-05-06T21:03:49.105Z,8.50
2023-05-06T21:08:56.455Z,8.47
2023-05-06T21:14:03.656Z,8.43
2023-05-06T21:19:11.113Z,8.40
2023-05-06T21:24:18.213Z,8.36
2023-05-06T21:29:25.473Z,8.34
2023-05-06T21:34:32.533Z,8.30
2023-05-06T21:39:39.606Z,8.28
2023-05-06T21:44:46.674Z,8.25
2023-05-06T21:49:54.155Z,8.23
2023-05-06T21:55:01.617Z,8.23
2023-05-06T22:00:12.431Z,8.23
2023-05-06T22:05:20.371Z,8.21
2023-05-06T22:10:27.615Z,8.21
2023-05-06T22:15:34.617Z,8.22
2023-05-06T22:20:41.622Z,8.22
2023-05-06T22:25:49.500Z,8.23
2023-05-06T22:30:56.635Z,8.22
2023-05-06T22:36:03.777Z,8.21
2023-05-06T22:41:12.963Z,8.22
2023-05-06T22:46:20.313Z,8.23
2023-05-06T22:51:27.750Z,8.23
2023-05-06T22:56:34.818Z,8.24
2023-05-06T23:01:41.777Z,8.25
2023-05-06T23:06:48.947Z,8.26
2023-05-06T23:11:56.138Z,8.25
2023-05-06T23:17:03.044Z,8.25
2023-05-06T23:22:10.044Z,8.26
2023-05-06T23:27:16.906Z,8.26
2023-05-06T23:32:23.776Z,8.26
2023-05-06T23:37:30.736Z,8.26
2023-05-06T23:42:37.778Z,8.26
2023-05-06T23:47:44.830Z,8.27
2023-05-06T23:52:51.901Z,8.29
2023-05-06T23:57:58.783Z,8.29
